sensor_id;sensor_type;location;lat;lon;timestamp;pressure;altitude;pressure_sealevel;temperature;humidity
26823;BME280;14852;51.910;8.878;2023-02-17T00:01:31;100089.47;;;11.45;62.96
26823;BME280;14852;51.910;8.878;2023-02-17T00:03:58;100101.63;;;11.44;63.11
26823;BME280;14852;51.910;8.878;2023-02-17T00:06:27;100097.13;;;11.48;63.28
26823;BME280;14852;51.910;8.878;2023-02-17T00:08:53;100092.84;;;11.47;63.02
26823;BME280;14852;51.910;8.878;2023-02-17T00:11:19;100094.53;;;11.48;63.21
26823;BME280;14852;51.910;8.878;2023-02-17T00:13:45;100090.16;;;11.48;63.37
26823;BME280;14852;51.910;8.878;2023-02-17T00:16:20;100096.00;;;11.53;63.40
26823;BME280;14852;51.910;8.878;2023-02-17T00:18:54;100084.63;;;11.54;63.62
26823;BME280;14852;51.910;8.878;2023-02-17T00:21:24;100082.97;;;11.53;63.85
26823;BME280;14852;51.910;8.878;2023-02-17T00:23:50;100073.38;;;11.54;63.94
26823;BME280;14852;51.910;8.878;2023-02-17T00:26:18;100068.09;;;11.55;63.76
26823;BME280;14852;51.910;8.878;2023-02-17T00:28:45;100057.63;;;11.57;64.00
26823;BME280;14852;51.910;8.878;2023-02-17T00:31:22;100064.34;;;11.61;63.80
26823;BME280;14852;51.910;8.878;2023-02-17T00:33:48;100037.47;;;11.60;63.95
26823;BME280;14852;51.910;8.878;2023-02-17T00:36:17;100026.84;;;11.65;64.23
26823;BME280;14852;51.910;8.878;2023-02-17T00:38:44;100030.19;;;11.67;63.89
26823;BME280;14852;51.910;8.878;2023-02-17T00:41:10;100029.19;;;11.70;63.67
26823;BME280;14852;51.910;8.878;2023-02-17T00:43:35;100030.03;;;11.70;63.82
26823;BME280;14852;51.910;8.878;2023-02-17T00:46:01;100027.28;;;11.73;64.05
26823;BME280;14852;51.910;8.878;2023-02-17T00:48:29;100027.16;;;11.76;64.06
26823;BME280;14852;51.910;8.878;2023-02-17T00:50:55;100039.91;;;11.81;63.74
26823;BME280;14852;51.910;8.878;2023-02-17T00:53:21;100020.75;;;11.82;64.18
26823;BME280;14852;51.910;8.878;2023-02-17T00:55:46;100023.28;;;11.83;63.92
26823;BME280;14852;51.910;8.878;2023-02-17T00:58:13;100029.34;;;11.84;64.49
26823;BME280;14852;51.910;8.878;2023-02-17T01:00:38;100023.97;;;11.87;64.20
26823;BME280;14852;51.910;8.878;2023-02-17T01:03:04;100029.84;;;11.90;64.10
26823;BME280;14852;51.910;8.878;2023-02-17T01:05:30;100024.81;;;11.87;64.33
26823;BME280;14852;51.910;8.878;2023-02-17T01:07:56;100032.53;;;11.89;64.33
26823;BME280;14852;51.910;8.878;2023-02-17T01:10:21;100023.78;;;11.90;64.48
26823;BME280;14852;51.910;8.878;2023-02-17T01:12:47;100027.16;;;11.92;64.35
26823;BME280;14852;51.910;8.878;2023-02-17T01:15:13;100013.13;;;11.94;64.09
26823;BME280;14852;51.910;8.878;2023-02-17T01:17:39;100015.66;;;11.96;64.21
26823;BME280;14852;51.910;8.878;2023-02-17T01:20:06;100004.31;;;11.97;64.30
26823;BME280;14852;51.910;8.878;2023-02-17T01:22:32;100008.69;;;11.96;64.26
26823;BME280;14852;51.910;8.878;2023-02-17T01:24:58;100028.59;;;11.98;64.54
26823;BME280;14852;51.910;8.878;2023-02-17T01:27:27;100000.13;;;11.94;64.42
26823;BME280;14852;51.910;8.878;2023-02-17T01:29:53;100000.13;;;11.94;64.65
26823;BME280;14852;51.910;8.878;2023-02-17T01:32:19;100000.19;;;11.93;64.49
26823;BME280;14852;51.910;8.878;2023-02-17T01:34:46;100000.13;;;11.94;64.64
26823;BME280;14852;51.910;8.878;2023-02-17T01:37:13;100007.09;;;11.94;64.99
26823;BME280;14852;51.910;8.878;2023-02-17T01:39:39;100009.53;;;11.97;64.73
26823;BME280;14852;51.910;8.878;2023-02-17T01:42:05;100006.09;;;11.96;64.87
26823;BME280;14852;51.910;8.878;2023-02-17T01:44:31;100009.53;;;11.97;64.60
26823;BME280;14852;51.910;8.878;2023-02-17T01:46:57;99995.53;;;12.00;64.75
26823;BME280;14852;51.910;8.878;2023-02-17T01:55:36;99981.47;;;12.02;64.78
26823;BME280;14852;51.910;8.878;2023-02-17T01:58:05;99971.13;;;12.01;64.86
26823;BME280;14852;51.910;8.878;2023-02-17T02:00:33;99975.50;;;12.00;64.76
26823;BME280;14852;51.910;8.878;2023-02-17T02:03:00;99968.44;;;12.02;64.76
26823;BME280;14852;51.910;8.878;2023-02-17T02:05:27;99969.28;;;12.03;65.19
26823;BME280;14852;51.910;8.878;2023-02-17T02:07:53;99963.16;;;12.04;65.06
26823;BME280;14852;51.910;8.878;2023-02-17T02:10:19;99964.75;;;12.06;64.54
26823;BME280;14852;51.910;8.878;2023-02-17T02:12:45;99961.31;;;12.06;64.73
26823;BME280;14852;51.910;8.878;2023-02-17T02:15:17;99956.88;;;12.08;64.95
26823;BME280;14852;51.910;8.878;2023-02-17T02:30:25;99936.59;;;12.13;64.66
26823;BME280;14852;51.910;8.878;2023-02-17T02:33:23;99940.22;;;12.10;65.21
26823;BME280;14852;51.910;8.878;2023-02-17T02:36:04;99925.53;;;12.09;64.74
26823;BME280;14852;51.910;8.878;2023-02-17T02:41:22;99923.69;;;12.11;65.24
26823;BME280;14852;51.910;8.878;2023-02-17T02:43:50;99922.84;;;12.11;65.00
26823;BME280;14852;51.910;8.878;2023-02-17T02:46:16;99923.75;;;12.10;65.29
26823;BME280;14852;51.910;8.878;2023-02-17T02:48:43;99922.00;;;12.10;65.45
26823;BME280;14852;51.910;8.878;2023-02-17T03:05:30;99912.91;;;12.17;65.34
26823;BME280;14852;51.910;8.878;2023-02-17T03:08:19;99925.00;;;12.18;65.58
26823;BME280;14852;51.910;8.878;2023-02-17T03:10:50;99923.25;;;12.19;65.30
26823;BME280;14852;51.910;8.878;2023-02-17T03:13:17;99928.44;;;12.19;65.46
26823;BME280;14852;51.910;8.878;2023-02-17T03:15:45;99923.25;;;12.19;65.42
26823;BME280;14852;51.910;8.878;2023-02-17T03:18:11;99917.94;;;12.20;65.64
26823;BME280;14852;51.910;8.878;2023-02-17T03:20:55;99918.72;;;12.22;65.81
26823;BME280;14852;51.910;8.878;2023-02-17T03:23:21;99919.72;;;12.20;65.51
26823;BME280;14852;51.910;8.878;2023-02-17T03:25:47;99915.16;;;12.23;65.87
26823;BME280;14852;51.910;8.878;2023-02-17T03:28:14;99900.47;;;12.22;65.83
26823;BME280;14852;51.910;8.878;2023-02-17T03:30:40;99896.19;;;12.21;65.59
26823;BME280;14852;51.910;8.878;2023-02-17T03:33:07;99880.56;;;12.21;65.64
26823;BME280;14852;51.910;8.878;2023-02-17T03:35:33;99870.22;;;12.20;65.88
26823;BME280;14852;51.910;8.878;2023-02-17T03:37:58;99860.72;;;12.19;66.12
26823;BME280;14852;51.910;8.878;2023-02-17T03:40:24;99861.56;;;12.19;66.22
26823;BME280;14852;51.910;8.878;2023-02-17T03:42:50;99858.03;;;12.20;66.25
26823;BME280;14852;51.910;8.878;2023-02-17T03:45:16;99850.22;;;12.20;66.40
26823;BME280;14852;51.910;8.878;2023-02-17T03:47:41;99850.22;;;12.20;66.16
26823;BME280;14852;51.910;8.878;2023-02-17T03:50:08;99849.31;;;12.21;66.55
26823;BME280;14852;51.910;8.878;2023-02-17T03:52:34;99864.00;;;12.22;66.26
26823;BME280;14852;51.910;8.878;2023-02-17T03:55:00;99864.72;;;12.24;66.54
26823;BME280;14852;51.910;8.878;2023-02-17T03:57:25;99875.91;;;12.26;66.19
26823;BME280;14852;51.910;8.878;2023-02-17T03:59:51;99866.31;;;12.27;66.34
26823;BME280;14852;51.910;8.878;2023-02-17T04:02:17;99865.66;;;12.23;66.55
26823;BME280;14852;51.910;8.878;2023-02-17T04:04:43;99858.97;;;12.19;66.80
26823;BME280;14852;51.910;8.878;2023-02-17T04:07:08;99851.31;;;12.16;67.00
26823;BME280;14852;51.910;8.878;2023-02-17T04:09:34;99866.94;;;12.16;67.08
26823;BME280;14852;51.910;8.878;2023-02-17T04:12:00;99860.91;;;12.16;66.86
26823;BME280;14852;51.910;8.878;2023-02-17T04:14:25;99852.16;;;12.17;67.01
26823;BME280;14852;51.910;8.878;2023-02-17T04:16:51;99850.38;;;12.17;67.32
26823;BME280;14852;51.910;8.878;2023-02-17T04:19:17;99859.88;;;12.18;67.26
26823;BME280;14852;51.910;8.878;2023-02-17T04:21:43;99864.94;;;12.21;66.98
26823;BME280;14852;51.910;8.878;2023-02-17T04:24:08;99869.09;;;12.24;66.87
26823;BME280;14852;51.910;8.878;2023-02-17T04:26:34;99866.41;;;12.25;67.22
26823;BME280;14852;51.910;8.878;2023-02-17T04:29:03;99867.09;;;12.29;66.68
26823;BME280;14852;51.910;8.878;2023-02-17T04:31:29;99874.91;;;12.29;66.89
26823;BME280;14852;51.910;8.878;2023-02-17T04:33:55;99853.03;;;12.31;66.78
26823;BME280;14852;51.910;8.878;2023-02-17T04:36:21;99850.34;;;12.33;66.74
26823;BME280;14852;51.910;8.878;2023-02-17T04:38:47;99861.50;;;12.35;66.58
26823;BME280;14852;51.910;8.878;2023-02-17T04:41:13;99879.66;;;12.37;66.90
26823;BME280;14852;51.910;8.878;2023-02-17T04:43:38;99878.81;;;12.36;67.25
26823;BME280;14852;51.910;8.878;2023-02-17T04:46:04;99892.69;;;12.37;67.01
26823;BME280;14852;51.910;8.878;2023-02-17T04:48:30;99893.44;;;12.39;66.82
26823;BME280;14852;51.910;8.878;2023-02-17T04:50:56;99889.81;;;12.41;66.99
26823;BME280;14852;51.910;8.878;2023-02-17T04:53:21;99876.81;;;12.41;66.96
26823;BME280;14852;51.910;8.878;2023-02-17T04:55:49;99864.69;;;12.40;66.93
26823;BME280;14852;51.910;8.878;2023-02-17T04:58:15;99877.56;;;12.43;67.49
26823;BME280;14852;51.910;8.878;2023-02-17T05:00:41;99880.91;;;12.45;67.02
26823;BME280;14852;51.910;8.878;2023-02-17T05:03:07;99864.25;;;12.48;66.59
26823;BME280;14852;51.910;8.878;2023-02-17T05:05:33;99860.72;;;12.49;66.83
26823;BME280;14852;51.910;8.878;2023-02-17T05:07:59;99874.56;;;12.49;66.95
26823;BME280;14852;51.910;8.878;2023-02-17T05:10:25;99858.94;;;12.49;66.97
26823;BME280;14852;51.910;8.878;2023-02-17T05:12:51;99851.97;;;12.50;66.82
26823;BME280;14852;51.910;8.878;2023-02-17T05:15:17;99850.03;;;12.53;66.91
26823;BME280;14852;51.910;8.878;2023-02-17T05:17:42;99839.69;;;12.52;66.89
26823;BME280;14852;51.910;8.878;2023-02-17T05:20:09;99840.44;;;12.54;66.55
26823;BME280;14852;51.910;8.878;2023-02-17T05:22:35;99836.16;;;12.53;66.65
26823;BME280;14852;51.910;8.878;2023-02-17T05:25:00;99835.13;;;12.55;67.11
26823;BME280;14852;51.910;8.878;2023-02-17T05:27:26;99828.25;;;12.54;66.84
26823;BME280;14852;51.910;8.878;2023-02-17T05:29:52;99816.81;;;12.57;66.62
26823;BME280;14852;51.910;8.878;2023-02-17T05:32:18;99816.97;;;12.54;66.84
26823;BME280;14852;51.910;8.878;2023-02-17T05:34:44;99824.81;;;12.54;66.91
26823;BME280;14852;51.910;8.878;2023-02-17T05:37:10;99817.91;;;12.53;66.96
26823;BME280;14852;51.910;8.878;2023-02-17T05:39:35;99817.81;;;12.54;66.67
26823;BME280;14852;51.910;8.878;2023-02-17T05:42:01;99818.75;;;12.53;67.10
26823;BME280;14852;51.910;8.878;2023-02-17T05:44:27;99822.03;;;12.57;66.54
26823;BME280;14852;51.910;8.878;2023-02-17T05:46:53;99822.75;;;12.59;66.71
26823;BME280;14852;51.910;8.878;2023-02-17T05:49:18;99835.78;;;12.59;66.49
26823;BME280;14852;51.910;8.878;2023-02-17T05:51:44;99831.41;;;12.59;66.87
26823;BME280;14852;51.910;8.878;2023-02-17T05:54:10;99840.81;;;12.62;66.41
26823;BME280;14852;51.910;8.878;2023-02-17T05:56:36;99826.84;;;12.63;66.64
26823;BME280;14852;51.910;8.878;2023-02-17T05:59:02;99834.59;;;12.64;66.56
26823;BME280;14852;51.910;8.878;2023-02-17T06:01:27;99833.66;;;12.65;66.38
26823;BME280;14852;51.910;8.878;2023-02-17T06:03:53;99813.72;;;12.64;66.38
26823;BME280;14852;51.910;8.878;2023-02-17T06:06:19;99789.34;;;12.65;66.55
26823;BME280;14852;51.910;8.878;2023-02-17T06:08:44;99779.94;;;12.63;66.41
26823;BME280;14852;51.910;8.878;2023-02-17T06:11:10;99776.47;;;12.62;66.66
26823;BME280;14852;51.910;8.878;2023-02-17T06:13:36;99768.56;;;12.64;66.50
26823;BME280;14852;51.910;8.878;2023-02-17T06:16:02;99766.91;;;12.63;66.59
26823;BME280;14852;51.910;8.878;2023-02-17T06:18:28;99776.41;;;12.64;66.23
26823;BME280;14852;51.910;8.878;2023-02-17T06:20:55;99773.88;;;12.62;66.50
26823;BME280;14852;51.910;8.878;2023-02-17T06:23:23;99770.53;;;12.60;66.41
26823;BME280;14852;51.910;8.878;2023-02-17T06:25:48;99765.31;;;12.60;66.18
26823;BME280;14852;51.910;8.878;2023-02-17T06:28:14;99772.19;;;12.61;66.60
26823;BME280;14852;51.910;8.878;2023-02-17T06:30:40;99772.13;;;12.63;66.15
26823;BME280;14852;51.910;8.878;2023-02-17T06:33:06;99766.91;;;12.63;66.42
26823;BME280;14852;51.910;8.878;2023-02-17T06:35:31;99753.97;;;12.61;66.07
26823;BME280;14852;51.910;8.878;2023-02-17T06:37:57;99752.19;;;12.62;66.57
26823;BME280;14852;51.910;8.878;2023-02-17T06:40:23;99745.22;;;12.62;66.28
26823;BME280;14852;51.910;8.878;2023-02-17T06:42:49;99742.59;;;12.62;65.86
26823;BME280;14852;51.910;8.878;2023-02-17T06:45:15;99746.88;;;12.63;66.17
26823;BME280;14852;51.910;8.878;2023-02-17T06:47:41;99746.78;;;12.65;65.88
26823;BME280;14852;51.910;8.878;2023-02-17T06:50:09;99738.88;;;12.66;66.07
26823;BME280;14852;51.910;8.878;2023-02-17T06:52:35;99745.78;;;12.67;65.74
26823;BME280;14852;51.910;8.878;2023-02-17T06:55:00;99750.78;;;12.70;65.89
26823;BME280;14852;51.910;8.878;2023-02-17T06:57:26;99754.97;;;12.73;65.85
26823;BME280;14852;51.910;8.878;2023-02-17T06:59:52;99786.16;;;12.75;65.66
26823;BME280;14852;51.910;8.878;2023-02-17T07:02:18;99777.34;;;12.77;65.58
26823;BME280;14852;51.910;8.878;2023-02-17T07:04:43;99788.59;;;12.78;65.85
26823;BME280;14852;51.910;8.878;2023-02-17T07:07:10;99794.66;;;12.78;65.67
26823;BME280;14852;51.910;8.878;2023-02-17T07:09:36;99811.78;;;12.82;65.56
26823;BME280;14852;51.910;8.878;2023-02-17T07:12:03;99805.53;;;12.85;65.56
26823;BME280;14852;51.910;8.878;2023-02-17T07:14:32;99791.47;;;12.87;65.77
26823;BME280;14852;51.910;8.878;2023-02-17T07:16:58;99777.69;;;12.85;65.87
26823;BME280;14852;51.910;8.878;2023-02-17T07:19:24;99790.56;;;12.88;65.23
26823;BME280;14852;51.910;8.878;2023-02-17T07:21:50;99787.09;;;12.88;65.34
26823;BME280;14852;51.910;8.878;2023-02-17T07:24:15;99787.94;;;12.88;65.74
26823;BME280;14852;51.910;8.878;2023-02-17T07:26:41;99783.25;;;12.93;65.20
26823;BME280;14852;51.910;8.878;2023-02-17T07:29:07;99764.09;;;12.94;65.27
26823;BME280;14852;51.910;8.878;2023-02-17T07:31:34;99756.16;;;12.96;65.51
26823;BME280;14852;51.910;8.878;2023-02-17T07:34:02;99763.06;;;12.97;65.43
26823;BME280;14852;51.910;8.878;2023-02-17T07:36:28;99750.03;;;12.97;65.09
26823;BME280;14852;51.910;8.878;2023-02-17T07:38:54;99743.97;;;12.96;65.52
26823;BME280;14852;51.910;8.878;2023-02-17T07:41:23;99741.25;;;12.98;65.30
26823;BME280;14852;51.910;8.878;2023-02-17T07:43:53;99737.72;;;12.99;65.09
26823;BME280;14852;51.910;8.878;2023-02-17T07:46:21;99744.63;;;13.00;65.04
26823;BME280;14852;51.910;8.878;2023-02-17T07:48:47;99750.59;;;13.02;65.00
26823;BME280;14852;51.910;8.878;2023-02-17T07:51:20;99725.97;;;13.06;65.07
26823;BME280;14852;51.910;8.878;2023-02-17T07:53:47;99710.22;;;13.07;65.09
26823;BME280;14852;51.910;8.878;2023-02-17T07:56:16;99722.06;;;13.13;65.11
26823;BME280;14852;51.910;8.878;2023-02-17T07:58:44;99713.38;;;13.13;65.43
26823;BME280;14852;51.910;8.878;2023-02-17T08:01:14;99717.78;;;13.12;65.09
26823;BME280;14852;51.910;8.878;2023-02-17T08:03:41;99722.25;;;13.10;65.74
26823;BME280;14852;51.910;8.878;2023-02-17T08:06:21;99712.66;;;13.11;65.42
26823;BME280;14852;51.910;8.878;2023-02-17T08:08:48;99718.88;;;13.08;65.58
26823;BME280;14852;51.910;8.878;2023-02-17T08:11:34;99724.94;;;13.09;65.69
26823;BME280;14852;51.910;8.878;2023-02-17T08:14:25;99728.28;;;13.11;65.82
26823;BME280;14852;51.910;8.878;2023-02-17T08:16:51;99722.25;;;13.10;65.51
26823;BME280;14852;51.910;8.878;2023-02-17T08:19:17;99726.53;;;13.11;65.67
26823;BME280;14852;51.910;8.878;2023-02-17T08:21:43;99717.78;;;13.12;65.88
26823;BME280;14852;51.910;8.878;2023-02-17T08:24:09;99715.81;;;13.16;66.08
26823;BME280;14852;51.910;8.878;2023-02-17T08:26:35;99705.38;;;13.16;65.69
26823;BME280;14852;51.910;8.878;2023-02-17T08:29:01;99719.25;;;13.16;65.64
26823;BME280;14852;51.910;8.878;2023-02-17T08:31:33;99715.06;;;13.14;66.16
26823;BME280;14852;51.910;8.878;2023-02-17T08:34:01;99708.44;;;13.08;66.04
26823;BME280;14852;51.910;8.878;2023-02-17T08:36:28;99707.63;;;13.07;66.52
26823;BME280;14852;51.910;8.878;2023-02-17T08:38:55;99693.53;;;13.10;66.39
26823;BME280;14852;51.910;8.878;2023-02-17T08:41:28;99698.75;;;13.10;66.41
26823;BME280;14852;51.910;8.878;2023-02-17T08:43:57;99691.78;;;13.11;66.64
26823;BME280;14852;51.910;8.878;2023-02-17T08:46:23;99680.31;;;13.13;66.57
26823;BME280;14852;51.910;8.878;2023-02-17T08:48:50;99682.72;;;13.16;66.15
26823;BME280;14852;51.910;8.878;2023-02-17T08:51:19;99651.56;;;13.15;66.46
26823;BME280;14852;51.910;8.878;2023-02-17T08:53:49;99658.41;;;13.16;66.55
26823;BME280;14852;51.910;8.878;2023-02-17T08:56:16;99667.00;;;13.18;66.90
26823;BME280;14852;51.910;8.878;2023-02-17T08:58:41;99660.84;;;13.19;66.67
26823;BME280;14852;51.910;8.878;2023-02-17T09:01:07;99652.06;;;13.20;66.39
26823;BME280;14852;51.910;8.878;2023-02-17T09:03:35;99663.34;;;13.20;66.57
26823;BME280;14852;51.910;8.878;2023-02-17T09:06:03;99643.22;;;13.22;66.55
26823;BME280;14852;51.910;8.878;2023-02-17T09:08:29;99665.69;;;13.25;67.10
26823;BME280;14852;51.910;8.878;2023-02-17T09:10:55;99650.72;;;13.27;66.56
26823;BME280;14852;51.910;8.878;2023-02-17T09:13:21;99673.00;;;13.32;66.80
26823;BME280;14852;51.910;8.878;2023-02-17T09:15:46;99673.56;;;13.37;66.48
26823;BME280;14852;51.910;8.878;2023-02-17T09:18:14;99681.16;;;13.40;66.64
26823;BME280;14852;51.910;8.878;2023-02-17T09:20:40;99668.00;;;13.42;66.59
26823;BME280;14852;51.910;8.878;2023-02-17T09:23:06;99690.38;;;13.46;66.60
26823;BME280;14852;51.910;8.878;2023-02-17T09:25:31;99672.19;;;13.45;66.57
26823;BME280;14852;51.910;8.878;2023-02-17T09:27:58;99686.00;;;13.47;66.61
26823;BME280;14852;51.910;8.878;2023-02-17T09:30:23;99698.00;;;13.49;66.83
26823;BME280;14852;51.910;8.878;2023-02-17T09:32:49;99708.31;;;13.51;66.58
26823;BME280;14852;51.910;8.878;2023-02-17T09:35:16;99682.97;;;13.53;66.65
26823;BME280;14852;51.910;8.878;2023-02-17T09:37:43;99674.94;;;13.56;66.33
26823;BME280;14852;51.910;8.878;2023-02-17T09:40:46;99695.53;;;13.60;66.65
26823;BME280;14852;51.910;8.878;2023-02-17T09:43:19;99672.97;;;13.59;66.28
26823;BME280;14852;51.910;8.878;2023-02-17T09:45:54;99682.34;;;13.62;66.36
26823;BME280;14852;51.910;8.878;2023-02-17T09:48:27;99684.78;;;13.65;66.13
26823;BME280;14852;51.910;8.878;2023-02-17T09:51:16;99691.38;;;13.70;66.27
26823;BME280;14852;51.910;8.878;2023-02-17T09:54:13;99711.44;;;13.70;66.26
26823;BME280;14852;51.910;8.878;2023-02-17T09:56:42;99727.28;;;13.67;66.48
26823;BME280;14852;51.910;8.878;2023-02-17T09:59:42;99718.31;;;13.71;66.53
26823;BME280;14852;51.910;8.878;2023-02-17T10:02:26;99728.53;;;13.74;66.66
26823;BME280;14852;51.910;8.878;2023-02-17T10:04:55;99743.50;;;13.72;66.49
26823;BME280;14852;51.910;8.878;2023-02-17T10:07:31;99694.59;;;13.74;66.46
26823;BME280;14852;51.910;8.878;2023-02-17T10:10:19;99729.19;;;13.77;66.63
26823;BME280;14852;51.910;8.878;2023-02-17T10:12:51;99717.72;;;13.80;66.35
26823;BME280;14852;51.910;8.878;2023-02-17T10:15:25;99697.56;;;13.82;66.58
26823;BME280;14852;51.910;8.878;2023-02-17T10:21:10;99707.78;;;13.85;66.19
26823;BME280;14852;51.910;8.878;2023-02-17T10:23:37;99709.47;;;13.86;66.33
26823;BME280;14852;51.910;8.878;2023-02-17T10:26:42;99696.84;;;13.93;66.05
26823;BME280;14852;51.910;8.878;2023-02-17T10:32:27;99692.66;;;14.03;66.12
26823;BME280;14852;51.910;8.878;2023-02-17T10:35:17;99679.81;;;14.12;66.21
26823;BME280;14852;51.910;8.878;2023-02-17T10:38:39;99687.03;;;14.22;65.95
26823;BME280;14852;51.910;8.878;2023-02-17T10:41:13;99685.88;;;14.26;65.55
26823;BME280;14852;51.910;8.878;2023-02-17T10:43:42;99704.81;;;14.29;65.31
26823;BME280;14852;51.910;8.878;2023-02-17T10:46:13;99694.97;;;14.33;65.32
26823;BME280;14852;51.910;8.878;2023-02-17T10:48:46;99686.91;;;14.36;65.30
26823;BME280;14852;51.910;8.878;2023-02-17T10:51:17;99695.09;;;14.44;65.06
26823;BME280;14852;51.910;8.878;2023-02-17T10:54:12;99680.03;;;14.47;65.33
26823;BME280;14852;51.910;8.878;2023-02-17T10:56:44;99677.94;;;14.53;64.68
26823;BME280;14852;51.910;8.878;2023-02-17T10:59:22;99688.69;;;14.61;64.79
26823;BME280;14852;51.910;8.878;2023-02-17T11:01:49;99691.22;;;14.62;64.40
26823;BME280;14852;51.910;8.878;2023-02-17T11:04:15;99702.28;;;14.66;64.42
26823;BME280;14852;51.910;8.878;2023-02-17T11:06:50;99682.72;;;14.71;64.33
26823;BME280;14852;51.910;8.878;2023-02-17T11:09:28;99675.25;;;14.78;64.43
26823;BME280;14852;51.910;8.878;2023-02-17T11:12:32;99673.16;;;14.83;63.92
26823;BME280;14852;51.910;8.878;2023-02-17T11:15:03;99664.88;;;14.89;63.87
26823;BME280;14852;51.910;8.878;2023-02-17T11:17:37;99665.38;;;14.94;63.44
26823;BME280;14852;51.910;8.878;2023-02-17T11:22:44;99640.63;;;15.11;63.42
26823;BME280;14852;51.910;8.878;2023-02-17T11:25:30;99640.53;;;15.23;63.03
26823;BME280;14852;51.910;8.878;2023-02-17T11:28:04;99652.34;;;15.29;63.10
26823;BME280;14852;51.910;8.878;2023-02-17T11:30:33;99654.66;;;15.34;62.70
26823;BME280;14852;51.910;8.878;2023-02-17T11:33:13;99638.25;;;15.43;62.73
26823;BME280;14852;51.910;8.878;2023-02-17T11:38:19;99644.41;;;15.54;61.95
26823;BME280;14852;51.910;8.878;2023-02-17T11:40:58;99638.69;;;15.61;61.96
26823;BME280;14852;51.910;8.878;2023-02-17T11:43:26;99649.56;;;15.67;61.44
26823;BME280;14852;51.910;8.878;2023-02-17T12:01:07;99596.81;;;15.94;60.47
26823;BME280;14852;51.910;8.878;2023-02-17T12:12:28;99615.06;;;16.07;60.17
26823;BME280;14852;51.910;8.878;2023-02-17T12:18:40;99584.44;;;16.18;59.74
26823;BME280;14852;51.910;8.878;2023-02-17T12:24:04;99601.72;;;16.21;59.55
26823;BME280;14852;51.910;8.878;2023-02-17T12:26:43;99609.00;;;16.17;59.29
26823;BME280;14852;51.910;8.878;2023-02-17T12:29:59;99620.19;;;16.19;59.50
26823;BME280;14852;51.910;8.878;2023-02-17T12:33:11;99605.91;;;16.23;59.55
26823;BME280;14852;51.910;8.878;2023-02-17T12:38:30;99613.41;;;16.28;59.46
26823;BME280;14852;51.910;8.878;2023-02-17T12:41:25;99610.66;;;16.29;59.21
26823;BME280;14852;51.910;8.878;2023-02-17T12:44:00;99613.41;;;16.28;58.90
26823;BME280;14852;51.910;8.878;2023-02-17T12:46:46;99617.81;;;16.27;58.85
26823;BME280;14852;51.910;8.878;2023-02-17T12:49:20;99623.88;;;16.28;58.90
26823;BME280;14852;51.910;8.878;2023-02-17T12:51:59;99620.06;;;16.32;59.17
26823;BME280;14852;51.910;8.878;2023-02-17T12:54:48;99625.31;;;16.32;58.78
26823;BME280;14852;51.910;8.878;2023-02-17T13:00:27;99622.47;;;16.13;59.33
26823;BME280;14852;51.910;8.878;2023-02-17T13:02:58;99626.50;;;16.06;59.15
26823;BME280;14852;51.910;8.878;2023-02-17T13:05:56;99635.47;;;16.03;59.64
26823;BME280;14852;51.910;8.878;2023-02-17T13:08:37;99647.34;;;15.96;59.20
26823;BME280;14852;51.910;8.878;2023-02-17T13:11:10;99631.25;;;15.89;59.21
26823;BME280;14852;51.910;8.878;2023-02-17T13:13:36;99637.78;;;15.84;58.99
26823;BME280;14852;51.910;8.878;2023-02-17T13:16:13;99648.03;;;15.87;59.24
26823;BME280;14852;51.910;8.878;2023-02-17T13:18:42;99636.13;;;15.83;59.03
26823;BME280;14852;51.910;8.878;2023-02-17T13:24:11;99649.34;;;15.81;59.37
26823;BME280;14852;51.910;8.878;2023-02-17T13:26:42;99640.78;;;15.79;59.14
26823;BME280;14852;51.910;8.878;2023-02-17T13:31:56;99637.78;;;15.73;59.41
26823;BME280;14852;51.910;8.878;2023-02-17T13:34:28;99649.56;;;15.67;59.14
26823;BME280;14852;51.910;8.878;2023-02-17T13:36:55;99672.41;;;15.65;59.34
26823;BME280;14852;51.910;8.878;2023-02-17T13:41:58;99681.09;;;15.66;59.51
26823;BME280;14852;51.910;8.878;2023-02-17T13:44:42;99681.81;;;15.68;59.44
26823;BME280;14852;51.910;8.878;2023-02-17T13:47:16;99687.91;;;15.68;59.01
26823;BME280;14852;51.910;8.878;2023-02-17T13:49:52;99700.16;;;15.68;59.22
26823;BME280;14852;51.910;8.878;2023-02-17T13:52:23;99695.25;;;15.63;59.24
26823;BME280;14852;51.910;8.878;2023-02-17T13:54:58;99720.00;;;15.59;59.52
26823;BME280;14852;51.910;8.878;2023-02-17T13:57:29;99724.53;;;15.57;59.44
26823;BME280;14852;51.910;8.878;2023-02-17T14:00:29;99732.38;;;15.57;59.81
26823;BME280;14852;51.910;8.878;2023-02-17T14:03:21;99728.94;;;15.56;59.61
26823;BME280;14852;51.910;8.878;2023-02-17T14:05:50;99731.72;;;15.53;60.20
26823;BME280;14852;51.910;8.878;2023-02-17T14:08:32;99733.84;;;15.48;60.46
26823;BME280;14852;51.910;8.878;2023-02-17T14:11:09;99723.00;;;15.42;60.76
26823;BME280;14852;51.910;8.878;2023-02-17T14:13:39;99727.94;;;15.34;60.92
26823;BME280;14852;51.910;8.878;2023-02-17T14:16:06;99714.66;;;15.24;61.25
26823;BME280;14852;51.910;8.878;2023-02-17T14:18:37;99737.22;;;15.14;61.77
26823;BME280;14852;51.910;8.878;2023-02-17T14:21:24;99746.13;;;15.11;61.80
26823;BME280;14852;51.910;8.878;2023-02-17T14:23:53;99741.44;;;15.04;61.82
26823;BME280;14852;51.910;8.878;2023-02-17T14:26:43;99739.03;;;15.01;62.03
26823;BME280;14852;51.910;8.878;2023-02-17T14:29:11;99738.63;;;14.94;62.33
26823;BME280;14852;51.910;8.878;2023-02-17T14:31:50;99726.00;;;14.88;62.21
26823;BME280;14852;51.910;8.878;2023-02-17T14:36:45;99722.13;;;14.81;62.93
26823;BME280;14852;51.910;8.878;2023-02-17T14:39:14;99726.88;;;14.76;62.73
26823;BME280;14852;51.910;8.878;2023-02-17T14:41:40;99720.25;;;14.70;62.75
26823;BME280;14852;51.910;8.878;2023-02-17T14:44:06;99706.34;;;14.70;63.30
26823;BME280;14852;51.910;8.878;2023-02-17T14:46:33;99723.81;;;14.69;63.02
26823;BME280;14852;51.910;8.878;2023-02-17T14:48:59;99727.59;;;14.65;63.48
26823;BME280;14852;51.910;8.878;2023-02-17T14:51:32;99716.53;;;14.62;63.35